sensor_id;sensor_type;location;lat;lon;timestamp;P1;durP1;ratioP1;P2;durP2;ratioP2
74059;SDS011;62414;53.436;8.828;2023-06-04T00:01:37;6.67;;;2.30;;
74059;SDS011;62414;53.436;8.828;2023-06-04T00:04:02;6.27;;;2.20;;
74059;SDS011;62414;53.436;8.828;2023-06-04T00:06:28;7.07;;;2.40;;
74059;SDS011;62414;53.436;8.828;2023-06-04T00:08:53;7.97;;;2.30;;
74059;SDS011;62414;53.436;8.828;2023-06-04T00:11:19;6.75;;;2.20;;
74059;SDS011;62414;53.436;8.828;2023-06-04T00:13:45;7.13;;;2.40;;
74059;SDS011;62414;53.436;8.828;2023-06-04T00:16:11;5.80;;;2.33;;
74059;SDS011;62414;53.436;8.828;2023-06-04T00:18:36;6.37;;;2.33;;
74059;SDS011;62414;53.436;8.828;2023-06-04T00:21:02;8.93;;;2.80;;
74059;SDS011;62414;53.436;8.828;2023-06-04T00:23:28;5.47;;;2.60;;
74059;SDS011;62414;53.436;8.828;2023-06-04T00:25:53;5.77;;;2.20;;
74059;SDS011;62414;53.436;8.828;2023-06-04T00:28:18;8.07;;;2.60;;
74059;SDS011;62414;53.436;8.828;2023-06-04T00:30:45;6.23;;;2.53;;
74059;SDS011;62414;53.436;8.828;2023-06-04T00:33:11;7.75;;;2.80;;
74059;SDS011;62414;53.436;8.828;2023-06-04T00:35:36;6.50;;;2.80;;
74059;SDS011;62414;53.436;8.828;2023-06-04T00:38:02;5.75;;;2.60;;
74059;SDS011;62414;53.436;8.828;2023-06-04T00:40:27;9.80;;;2.60;;
74059;SDS011;62414;53.436;8.828;2023-06-04T00:42:53;7.87;;;2.50;;
74059;SDS011;62414;53.436;8.828;2023-06-04T00:45:18;9.77;;;2.90;;
74059;SDS011;62414;53.436;8.828;2023-06-04T00:47:45;7.53;;;2.83;;
74059;SDS011;62414;53.436;8.828;2023-06-04T00:50:11;7.38;;;2.97;;
74059;SDS011;62414;53.436;8.828;2023-06-04T00:52:36;8.37;;;2.57;;
74059;SDS011;62414;53.436;8.828;2023-06-04T00:55:02;5.78;;;2.60;;
74059;SDS011;62414;53.436;8.828;2023-06-04T00:57:27;7.40;;;2.80;;
74059;SDS011;62414;53.436;8.828;2023-06-04T00:59:53;5.40;;;2.37;;
74059;SDS011;62414;53.436;8.828;2023-06-04T01:02:19;8.00;;;2.85;;
74059;SDS011;62414;53.436;8.828;2023-06-04T01:04:50;9.77;;;2.75;;
74059;SDS011;62414;53.436;8.828;2023-06-04T01:07:19;9.03;;;2.80;;
74059;SDS011;62414;53.436;8.828;2023-06-04T01:09:45;7.85;;;2.78;;
74059;SDS011;62414;53.436;8.828;2023-06-04T01:12:11;7.43;;;2.87;;
74059;SDS011;62414;53.436;8.828;2023-06-04T01:14:36;6.28;;;2.58;;
74059;SDS011;62414;53.436;8.828;2023-06-04T01:17:02;7.50;;;3.03;;
74059;SDS011;62414;53.436;8.828;2023-06-04T01:19:37;7.15;;;3.15;;
74059;SDS011;62414;53.436;8.828;2023-06-04T01:22:27;6.68;;;2.72;;
74059;SDS011;62414;53.436;8.828;2023-06-04T01:24:58;7.30;;;3.00;;
74059;SDS011;62414;53.436;8.828;2023-06-04T01:27:26;7.53;;;3.20;;
74059;SDS011;62414;53.436;8.828;2023-06-04T01:29:52;10.40;;;2.90;;
74059;SDS011;62414;53.436;8.828;2023-06-04T01:32:17;7.15;;;2.88;;
74059;SDS011;62414;53.436;8.828;2023-06-04T01:34:43;8.00;;;3.13;;
74059;SDS011;62414;53.436;8.828;2023-06-04T01:37:09;9.57;;;3.17;;
74059;SDS011;62414;53.436;8.828;2023-06-04T01:39:36;10.90;;;3.23;;
74059;SDS011;62414;53.436;8.828;2023-06-04T01:42:01;7.72;;;3.50;;
74059;SDS011;62414;53.436;8.828;2023-06-04T01:44:27;8.17;;;3.50;;
74059;SDS011;62414;53.436;8.828;2023-06-04T01:46:52;7.70;;;2.97;;
74059;SDS011;62414;53.436;8.828;2023-06-04T01:49:18;7.37;;;3.40;;
74059;SDS011;62414;53.436;8.828;2023-06-04T01:51:43;7.80;;;3.13;;
74059;SDS011;62414;53.436;8.828;2023-06-04T01:54:09;9.25;;;3.42;;
74059;SDS011;62414;53.436;8.828;2023-06-04T01:56:36;8.50;;;3.90;;
74059;SDS011;62414;53.436;8.828;2023-06-04T01:59:01;8.27;;;3.70;;
74059;SDS011;62414;53.436;8.828;2023-06-04T02:01:27;8.88;;;3.78;;
74059;SDS011;62414;53.436;8.828;2023-06-04T02:03:53;12.20;;;3.83;;
74059;SDS011;62414;53.436;8.828;2023-06-04T02:06:18;8.90;;;3.53;;
74059;SDS011;62414;53.436;8.828;2023-06-04T02:08:44;10.45;;;3.42;;
74059;SDS011;62414;53.436;8.828;2023-06-04T02:11:09;7.07;;;3.40;;
74059;SDS011;62414;53.436;8.828;2023-06-04T02:13:36;6.27;;;3.17;;
74059;SDS011;62414;53.436;8.828;2023-06-04T02:16:02;8.88;;;3.63;;
74059;SDS011;62414;53.436;8.828;2023-06-04T02:18:27;9.17;;;3.73;;
74059;SDS011;62414;53.436;8.828;2023-06-04T02:20:53;8.75;;;3.80;;
74059;SDS011;62414;53.436;8.828;2023-06-04T02:23:19;8.93;;;3.97;;
74059;SDS011;62414;53.436;8.828;2023-06-04T02:25:45;9.27;;;3.95;;
74059;SDS011;62414;53.436;8.828;2023-06-04T02:28:10;9.57;;;3.83;;
74059;SDS011;62414;53.436;8.828;2023-06-04T02:30:37;8.80;;;3.77;;
74059;SDS011;62414;53.436;8.828;2023-06-04T02:33:03;9.38;;;3.70;;
74059;SDS011;62414;53.436;8.828;2023-06-04T02:35:28;11.20;;;4.00;;
74059;SDS011;62414;53.436;8.828;2023-06-04T02:37:54;7.10;;;3.72;;
74059;SDS011;62414;53.436;8.828;2023-06-04T02:40:20;7.80;;;3.87;;
74059;SDS011;62414;53.436;8.828;2023-06-04T02:42:45;9.00;;;3.90;;
74059;SDS011;62414;53.436;8.828;2023-06-04T02:45:11;6.45;;;3.13;;
74059;SDS011;62414;53.436;8.828;2023-06-04T02:47:37;8.00;;;3.50;;
74059;SDS011;62414;53.436;8.828;2023-06-04T02:50:03;9.38;;;3.53;;
74059;SDS011;62414;53.436;8.828;2023-06-04T02:52:29;9.43;;;4.05;;
74059;SDS011;62414;53.436;8.828;2023-06-04T02:54:55;8.10;;;3.57;;
74059;SDS011;62414;53.436;8.828;2023-06-04T02:57:22;9.60;;;3.85;;
74059;SDS011;62414;53.436;8.828;2023-06-04T02:59:47;7.43;;;3.60;;
74059;SDS011;62414;53.436;8.828;2023-06-04T03:02:13;8.82;;;4.25;;
74059;SDS011;62414;53.436;8.828;2023-06-04T03:04:40;8.17;;;3.47;;
74059;SDS011;62414;53.436;8.828;2023-06-04T03:07:05;10.93;;;4.05;;
74059;SDS011;62414;53.436;8.828;2023-06-04T03:09:31;8.07;;;3.57;;
74059;SDS011;62414;53.436;8.828;2023-06-04T03:11:57;9.23;;;3.67;;
74059;SDS011;62414;53.436;8.828;2023-06-04T03:14:22;10.02;;;3.90;;
74059;SDS011;62414;53.436;8.828;2023-06-04T03:16:48;9.67;;;3.47;;
74059;SDS011;62414;53.436;8.828;2023-06-04T03:19:13;9.32;;;3.83;;
74059;SDS011;62414;53.436;8.828;2023-06-04T03:21:40;10.07;;;3.80;;
74059;SDS011;62414;53.436;8.828;2023-06-04T03:24:06;9.50;;;4.07;;
74059;SDS011;62414;53.436;8.828;2023-06-04T03:26:32;8.05;;;3.80;;
74059;SDS011;62414;53.436;8.828;2023-06-04T03:28:59;9.10;;;3.70;;
74059;SDS011;62414;53.436;8.828;2023-06-04T03:31:24;8.95;;;4.00;;
74059;SDS011;62414;53.436;8.828;2023-06-04T03:33:50;11.47;;;3.77;;
74059;SDS011;62414;53.436;8.828;2023-06-04T03:36:15;9.23;;;3.80;;
74059;SDS011;62414;53.436;8.828;2023-06-04T03:38:42;8.83;;;4.13;;
74059;SDS011;62414;53.436;8.828;2023-06-04T03:41:10;9.48;;;4.00;;
74059;SDS011;62414;53.436;8.828;2023-06-04T03:43:35;8.80;;;3.70;;
74059;SDS011;62414;53.436;8.828;2023-06-04T03:46:04;9.55;;;3.75;;
74059;SDS011;62414;53.436;8.828;2023-06-04T03:48:30;8.68;;;4.15;;
74059;SDS011;62414;53.436;8.828;2023-06-04T03:50:56;8.10;;;4.00;;
74059;SDS011;62414;53.436;8.828;2023-06-04T03:53:21;8.10;;;3.90;;
74059;SDS011;62414;53.436;8.828;2023-06-04T03:55:48;10.65;;;4.03;;
74059;SDS011;62414;53.436;8.828;2023-06-04T03:58:14;11.57;;;4.53;;
74059;SDS011;62414;53.436;8.828;2023-06-04T04:00:43;10.52;;;4.43;;
74059;SDS011;62414;53.436;8.828;2023-06-04T04:03:08;11.00;;;4.40;;
74059;SDS011;62414;53.436;8.828;2023-06-04T04:05:34;9.15;;;4.10;;
74059;SDS011;62414;53.436;8.828;2023-06-04T04:07:59;12.90;;;5.30;;
74059;SDS011;62414;53.436;8.828;2023-06-04T04:10:28;13.27;;;5.30;;
74059;SDS011;62414;53.436;8.828;2023-06-04T04:12:55;10.97;;;5.07;;
74059;SDS011;62414;53.436;8.828;2023-06-04T04:15:21;10.13;;;4.90;;
74059;SDS011;62414;53.436;8.828;2023-06-04T04:17:48;10.65;;;4.97;;
74059;SDS011;62414;53.436;8.828;2023-06-04T04:20:13;12.03;;;5.23;;
74059;SDS011;62414;53.436;8.828;2023-06-04T04:22:46;13.13;;;5.38;;
74059;SDS011;62414;53.436;8.828;2023-06-04T04:25:13;12.48;;;5.75;;
74059;SDS011;62414;53.436;8.828;2023-06-04T04:27:39;10.52;;;4.82;;
74059;SDS011;62414;53.436;8.828;2023-06-04T04:30:08;11.70;;;5.23;;
74059;SDS011;62414;53.436;8.828;2023-06-04T04:32:34;13.90;;;5.50;;
74059;SDS011;62414;53.436;8.828;2023-06-04T04:35:00;15.90;;;5.63;;
74059;SDS011;62414;53.436;8.828;2023-06-04T04:37:31;12.30;;;5.53;;
74059;SDS011;62414;53.436;8.828;2023-06-04T04:39:58;13.38;;;5.50;;
74059;SDS011;62414;53.436;8.828;2023-06-04T04:42:25;14.10;;;5.90;;
74059;SDS011;62414;53.436;8.828;2023-06-04T04:44:51;13.50;;;6.00;;
74059;SDS011;62414;53.436;8.828;2023-06-04T04:47:20;15.80;;;5.97;;
74059;SDS011;62414;53.436;8.828;2023-06-04T04:49:45;11.32;;;5.03;;
74059;SDS011;62414;53.436;8.828;2023-06-04T04:52:11;13.00;;;5.20;;
74059;SDS011;62414;53.436;8.828;2023-06-04T04:54:39;13.82;;;5.43;;
74059;SDS011;62414;53.436;8.828;2023-06-04T04:57:05;12.23;;;5.00;;
74059;SDS011;62414;53.436;8.828;2023-06-04T04:59:30;15.73;;;5.40;;
74059;SDS011;62414;53.436;8.828;2023-06-04T05:01:58;11.60;;;4.93;;
74059;SDS011;62414;53.436;8.828;2023-06-04T05:04:24;12.73;;;4.73;;
74059;SDS011;62414;53.436;8.828;2023-06-04T05:06:50;11.63;;;5.00;;
74059;SDS011;62414;53.436;8.828;2023-06-04T05:09:16;11.53;;;4.73;;
74059;SDS011;62414;53.436;8.828;2023-06-04T05:11:42;12.82;;;4.97;;
74059;SDS011;62414;53.436;8.828;2023-06-04T05:14:08;12.10;;;4.47;;
74059;SDS011;62414;53.436;8.828;2023-06-04T05:16:34;12.27;;;4.40;;
74059;SDS011;62414;53.436;8.828;2023-06-04T05:18:59;14.57;;;4.55;;
74059;SDS011;62414;53.436;8.828;2023-06-04T05:21:30;10.90;;;4.20;;
74059;SDS011;62414;53.436;8.828;2023-06-04T05:24:00;12.05;;;4.72;;
74059;SDS011;62414;53.436;8.828;2023-06-04T05:26:30;11.77;;;4.38;;
74059;SDS011;62414;53.436;8.828;2023-06-04T05:28:59;14.50;;;4.43;;
74059;SDS011;62414;53.436;8.828;2023-06-04T05:31:29;12.13;;;4.10;;
74059;SDS011;62414;53.436;8.828;2023-06-04T05:33:57;13.07;;;4.37;;
74059;SDS011;62414;53.436;8.828;2023-06-04T05:36:24;9.93;;;3.97;;
74059;SDS011;62414;53.436;8.828;2023-06-04T05:38:56;14.20;;;4.03;;
74059;SDS011;62414;53.436;8.828;2023-06-04T05:41:24;14.20;;;3.67;;
74059;SDS011;62414;53.436;8.828;2023-06-04T05:43:49;13.13;;;3.50;;
74059;SDS011;62414;53.436;8.828;2023-06-04T05:46:16;11.23;;;3.23;;
74059;SDS011;62414;53.436;8.828;2023-06-04T05:48:43;9.68;;;3.20;;
74059;SDS011;62414;53.436;8.828;2023-06-04T05:51:09;10.57;;;2.67;;
74059;SDS011;62414;53.436;8.828;2023-06-04T05:53:37;9.43;;;2.90;;
74059;SDS011;62414;53.436;8.828;2023-06-04T05:56:04;8.03;;;2.23;;
74059;SDS011;62414;53.436;8.828;2023-06-04T05:58:29;8.90;;;2.03;;
74059;SDS011;62414;53.436;8.828;2023-06-04T06:00:55;7.05;;;1.90;;
74059;SDS011;62414;53.436;8.828;2023-06-04T06:03:21;7.90;;;1.90;;
74059;SDS011;62414;53.436;8.828;2023-06-04T06:05:47;7.30;;;2.03;;
74059;SDS011;62414;53.436;8.828;2023-06-04T06:08:13;8.70;;;1.90;;
74059;SDS011;62414;53.436;8.828;2023-06-04T06:10:39;7.35;;;1.80;;
74059;SDS011;62414;53.436;8.828;2023-06-04T06:13:06;8.57;;;1.80;;
74059;SDS011;62414;53.436;8.828;2023-06-04T06:15:31;8.02;;;1.98;;
74059;SDS011;62414;53.436;8.828;2023-06-04T06:17:57;6.85;;;1.70;;
74059;SDS011;62414;53.436;8.828;2023-06-04T06:20:23;7.33;;;1.90;;
74059;SDS011;62414;53.436;8.828;2023-06-04T06:22:48;6.13;;;1.93;;
74059;SDS011;62414;53.436;8.828;2023-06-04T06:25:16;10.45;;;2.00;;
74059;SDS011;62414;53.436;8.828;2023-06-04T06:27:54;6.13;;;1.90;;
74059;SDS011;62414;53.436;8.828;2023-06-04T06:30:22;7.15;;;1.73;;
74059;SDS011;62414;53.436;8.828;2023-06-04T06:32:48;7.60;;;1.70;;
74059;SDS011;62414;53.436;8.828;2023-06-04T06:35:13;6.25;;;1.42;;
74059;SDS011;62414;53.436;8.828;2023-06-04T06:37:39;6.17;;;1.37;;
74059;SDS011;62414;53.436;8.828;2023-06-04T06:40:05;6.30;;;1.40;;
74059;SDS011;62414;53.436;8.828;2023-06-04T06:42:32;6.85;;;1.50;;
74059;SDS011;62414;53.436;8.828;2023-06-04T06:44:57;5.50;;;1.50;;
74059;SDS011;62414;53.436;8.828;2023-06-04T06:47:24;5.87;;;1.50;;
74059;SDS011;62414;53.436;8.828;2023-06-04T06:49:49;8.55;;;1.60;;
74059;SDS011;62414;53.436;8.828;2023-06-04T06:52:15;7.73;;;2.00;;
74059;SDS011;62414;53.436;8.828;2023-06-04T06:54:40;6.35;;;1.55;;
74059;SDS011;62414;53.436;8.828;2023-06-04T06:57:06;5.57;;;1.50;;
74059;SDS011;62414;53.436;8.828;2023-06-04T06:59:31;6.73;;;1.67;;
74059;SDS011;62414;53.436;8.828;2023-06-04T07:01:56;10.07;;;1.50;;
74059;SDS011;62414;53.436;8.828;2023-06-04T07:04:23;7.07;;;1.60;;
74059;SDS011;62414;53.436;8.828;2023-06-04T07:06:49;6.85;;;1.50;;
74059;SDS011;62414;53.436;8.828;2023-06-04T07:09:14;4.77;;;1.50;;
74059;SDS011;62414;53.436;8.828;2023-06-04T07:11:39;7.77;;;1.50;;
74059;SDS011;62414;53.436;8.828;2023-06-04T07:14:05;6.57;;;1.70;;
74059;SDS011;62414;53.436;8.828;2023-06-04T07:16:30;6.57;;;1.33;;
74059;SDS011;62414;53.436;8.828;2023-06-04T07:18:56;7.50;;;1.67;;
74059;SDS011;62414;53.436;8.828;2023-06-04T07:21:23;6.77;;;1.70;;
74059;SDS011;62414;53.436;8.828;2023-06-04T07:23:48;6.95;;;1.70;;
74059;SDS011;62414;53.436;8.828;2023-06-04T07:26:13;9.67;;;1.60;;
74059;SDS011;62414;53.436;8.828;2023-06-04T07:28:39;5.68;;;1.40;;
74059;SDS011;62414;53.436;8.828;2023-06-04T07:31:04;6.47;;;1.70;;
74059;SDS011;62414;53.436;8.828;2023-06-04T07:33:30;6.10;;;1.50;;
74059;SDS011;62414;53.436;8.828;2023-06-04T07:35:55;5.57;;;1.50;;
74059;SDS011;62414;53.436;8.828;2023-06-04T07:38:22;5.00;;;1.30;;
74059;SDS011;62414;53.436;8.828;2023-06-04T07:40:48;4.38;;;1.38;;
74059;SDS011;62414;53.436;8.828;2023-06-04T07:43:13;6.07;;;1.53;;
74059;SDS011;62414;53.436;8.828;2023-06-04T07:45:38;6.80;;;1.27;;
74059;SDS011;62414;53.436;8.828;2023-06-04T07:48:04;6.05;;;1.40;;
74059;SDS011;62414;53.436;8.828;2023-06-04T07:50:30;7.93;;;1.50;;
74059;SDS011;62414;53.436;8.828;2023-06-04T07:52:55;6.72;;;1.42;;
74059;SDS011;62414;53.436;8.828;2023-06-04T07:55:22;5.47;;;1.40;;
74059;SDS011;62414;53.436;8.828;2023-06-04T07:57:47;4.72;;;1.10;;
74059;SDS011;62414;53.436;8.828;2023-06-04T08:00:13;4.30;;;1.13;;
74059;SDS011;62414;53.436;8.828;2023-06-04T08:02:39;4.25;;;1.10;;
74059;SDS011;62414;53.436;8.828;2023-06-04T08:05:05;4.87;;;1.30;;
74059;SDS011;62414;53.436;8.828;2023-06-04T08:07:30;4.45;;;1.10;;
74059;SDS011;62414;53.436;8.828;2023-06-04T08:09:56;6.77;;;1.50;;
74059;SDS011;62414;53.436;8.828;2023-06-04T08:12:23;5.57;;;1.60;;
74059;SDS011;62414;53.436;8.828;2023-06-04T08:14:48;5.13;;;1.40;;
74059;SDS011;62414;53.436;8.828;2023-06-04T08:17:14;7.47;;;1.80;;
74059;SDS011;62414;53.436;8.828;2023-06-04T08:19:39;4.47;;;1.30;;
74059;SDS011;62414;53.436;8.828;2023-06-04T08:22:05;4.77;;;1.10;;
74059;SDS011;62414;53.436;8.828;2023-06-04T08:24:30;6.10;;;1.33;;
74059;SDS011;62414;53.436;8.828;2023-06-04T08:26:55;4.20;;;1.17;;
74059;SDS011;62414;53.436;8.828;2023-06-04T08:29:22;6.20;;;1.50;;
74059;SDS011;62414;53.436;8.828;2023-06-04T08:31:48;5.32;;;1.30;;
74059;SDS011;62414;53.436;8.828;2023-06-04T08:34:13;6.25;;;1.40;;
74059;SDS011;62414;53.436;8.828;2023-06-04T08:36:39;4.37;;;1.13;;
74059;SDS011;62414;53.436;8.828;2023-06-04T08:39:05;5.55;;;1.20;;
74059;SDS011;62414;53.436;8.828;2023-06-04T08:41:33;6.93;;;1.33;;
74059;SDS011;62414;53.436;8.828;2023-06-04T08:44:01;8.18;;;1.65;;
74059;SDS011;62414;53.436;8.828;2023-06-04T08:46:29;5.53;;;1.40;;
74059;SDS011;62414;53.436;8.828;2023-06-04T08:48:59;5.27;;;1.30;;
74059;SDS011;62414;53.436;8.828;2023-06-04T08:51:25;4.97;;;1.45;;
74059;SDS011;62414;53.436;8.828;2023-06-04T08:53:51;7.57;;;1.40;;
74059;SDS011;62414;53.436;8.828;2023-06-04T08:56:16;6.47;;;1.20;;
74059;SDS011;62414;53.436;8.828;2023-06-04T08:58:41;5.17;;;1.47;;
74059;SDS011;62414;53.436;8.828;2023-06-04T09:01:08;5.80;;;1.23;;
74059;SDS011;62414;53.436;8.828;2023-06-04T09:03:35;5.47;;;0.90;;
74059;SDS011;62414;53.436;8.828;2023-06-04T09:06:01;4.47;;;0.90;;
74059;SDS011;62414;53.436;8.828;2023-06-04T09:08:30;5.30;;;1.00;;
74059;SDS011;62414;53.436;8.828;2023-06-04T09:10:56;3.28;;;0.98;;
74059;SDS011;62414;53.436;8.828;2023-06-04T09:13:22;6.13;;;1.10;;
74059;SDS011;62414;53.436;8.828;2023-06-04T09:15:59;4.43;;;0.90;;
74059;SDS011;62414;53.436;8.828;2023-06-04T09:18:25;3.88;;;1.05;;
74059;SDS011;62414;53.436;8.828;2023-06-04T09:21:00;5.87;;;1.17;;
74059;SDS011;62414;53.436;8.828;2023-06-04T09:23:29;5.97;;;1.20;;
74059;SDS011;62414;53.436;8.828;2023-06-04T09:25:54;5.53;;;1.40;;
74059;SDS011;62414;53.436;8.828;2023-06-04T09:28:20;4.90;;;1.20;;
74059;SDS011;62414;53.436;8.828;2023-06-04T09:30:50;5.60;;;1.40;;
74059;SDS011;62414;53.436;8.828;2023-06-04T09:33:16;5.00;;;1.00;;
74059;SDS011;62414;53.436;8.828;2023-06-04T09:35:41;4.13;;;1.10;;
74059;SDS011;62414;53.436;8.828;2023-06-04T09:38:08;5.20;;;1.13;;
74059;SDS011;62414;53.436;8.828;2023-06-04T09:40:37;5.65;;;1.27;;
74059;SDS011;62414;53.436;8.828;2023-06-04T09:43:02;6.57;;;1.30;;
74059;SDS011;62414;53.436;8.828;2023-06-04T09:45:28;6.20;;;1.20;;
74059;SDS011;62414;53.436;8.828;2023-06-04T09:47:54;6.85;;;1.40;;
74059;SDS011;62414;53.436;8.828;2023-06-04T09:50:24;6.05;;;1.17;;
74059;SDS011;62414;53.436;8.828;2023-06-04T09:52:50;3.97;;;1.10;;
74059;SDS011;62414;53.436;8.828;2023-06-04T09:55:17;3.20;;;0.98;;
74059;SDS011;62414;53.436;8.828;2023-06-04T09:57:44;4.10;;;1.00;;
74059;SDS011;62414;53.436;8.828;2023-06-04T10:00:10;4.75;;;1.00;;
74059;SDS011;62414;53.436;8.828;2023-06-04T10:02:36;3.65;;;1.10;;
74059;SDS011;62414;53.436;8.828;2023-06-04T10:05:02;4.03;;;1.10;;
74059;SDS011;62414;53.436;8.828;2023-06-04T10:07:29;5.95;;;1.58;;
74059;SDS011;62414;53.436;8.828;2023-06-04T10:09:55;5.28;;;1.30;;
74059;SDS011;62414;53.436;8.828;2023-06-04T10:12:23;5.22;;;1.30;;
74059;SDS011;62414;53.436;8.828;2023-06-04T10:14:52;6.53;;;1.30;;
74059;SDS011;62414;53.436;8.828;2023-06-04T10:17:18;3.70;;;1.00;;
74059;SDS011;62414;53.436;8.828;2023-06-04T10:19:47;4.65;;;1.38;;
74059;SDS011;62414;53.436;8.828;2023-06-04T10:22:13;3.85;;;1.10;;
74059;SDS011;62414;53.436;8.828;2023-06-04T10:24:38;4.57;;;1.10;;
74059;SDS011;62414;53.436;8.828;2023-06-04T10:27:04;4.23;;;1.17;;
74059;SDS011;62414;53.436;8.828;2023-06-04T10:29:32;5.05;;;1.50;;
74059;SDS011;62414;53.436;8.828;2023-06-04T10:31:58;5.72;;;1.42;;
74059;SDS011;62414;53.436;8.828;2023-06-04T10:34:24;4.25;;;1.13;;
74059;SDS011;62414;53.436;8.828;2023-06-04T10:36:51;3.75;;;1.10;;
74059;SDS011;62414;53.436;8.828;2023-06-04T10:39:25;4.63;;;1.13;;
74059;SDS011;62414;53.436;8.828;2023-06-04T10:41:56;6.68;;;1.25;;
74059;SDS011;62414;53.436;8.828;2023-06-04T10:44:23;3.67;;;1.10;;
74059;SDS011;62414;53.436;8.828;2023-06-04T10:46:50;4.60;;;1.17;;
74059;SDS011;62414;53.436;8.828;2023-06-04T10:49:25;4.60;;;1.20;;
74059;SDS011;62414;53.436;8.828;2023-06-04T10:51:51;6.18;;;1.33;;
74059;SDS011;62414;53.436;8.828;2023-06-04T10:54:21;4.50;;;1.10;;
74059;SDS011;62414;53.436;8.828;2023-06-04T10:56:47;2.95;;;1.13;;
74059;SDS011;62414;53.436;8.828;2023-06-04T10:59:13;6.43;;;1.30;;
74059;SDS011;62414;53.436;8.828;2023-06-04T11:01:39;5.80;;;1.20;;
74059;SDS011;62414;53.436;8.828;2023-06-04T11:04:06;3.80;;;1.13;;
74059;SDS011;62414;53.436;8.828;2023-06-04T11:06:31;4.82;;;1.10;;
74059;SDS011;62414;53.436;8.828;2023-06-04T11:09:01;4.40;;;1.10;;
74059;SDS011;62414;53.436;8.828;2023-06-04T11:11:27;4.82;;;1.20;;
74059;SDS011;62414;53.436;8.828;2023-06-04T11:13:52;4.07;;;1.20;;
74059;SDS011;62414;53.436;8.828;2023-06-04T11:16:18;5.03;;;1.10;;
74059;SDS011;62414;53.436;8.828;2023-06-04T11:18:53;5.33;;;1.30;;
74059;SDS011;62414;53.436;8.828;2023-06-04T11:21:20;4.57;;;1.30;;
74059;SDS011;62414;53.436;8.828;2023-06-04T11:23:46;3.85;;;1.13;;
74059;SDS011;62414;53.436;8.828;2023-06-04T11:26:11;5.33;;;1.00;;
74059;SDS011;62414;53.436;8.828;2023-06-04T11:28:37;4.32;;;1.30;;
74059;SDS011;62414;53.436;8.828;2023-06-04T11:31:03;4.60;;;1.17;;
74059;SDS011;62414;53.436;8.828;2023-06-04T11:33:29;4.10;;;1.08;;
74059;SDS011;62414;53.436;8.828;2023-06-04T11:35:54;4.40;;;1.20;;
74059;SDS011;62414;53.436;8.828;2023-06-04T11:38:21;4.40;;;1.10;;
74059;SDS011;62414;53.436;8.828;2023-06-04T11:40:54;4.13;;;1.30;;
74059;SDS011;62414;53.436;8.828;2023-06-04T11:43:20;4.95;;;1.20;;
74059;SDS011;62414;53.436;8.828;2023-06-04T11:45:45;6.03;;;1.40;;
74059;SDS011;62414;53.436;8.828;2023-06-04T11:48:11;3.72;;;1.08;;
74059;SDS011;62414;53.436;8.828;2023-06-04T11:50:37;5.57;;;1.40;;
74059;SDS011;62414;53.436;8.828;2023-06-04T11:53:03;3.83;;;1.23;;
74059;SDS011;62414;53.436;8.828;2023-06-04T11:55:29;4.67;;;1.40;;
74059;SDS011;62414;53.436;8.828;2023-06-04T11:57:55;3.50;;;1.38;;
74059;SDS011;62414;53.436;8.828;2023-06-04T12:00:20;3.73;;;1.50;;
74059;SDS011;62414;53.436;8.828;2023-06-04T12:02:50;4.40;;;1.30;;
74059;SDS011;62414;53.436;8.828;2023-06-04T12:05:17;3.63;;;1.38;;
74059;SDS011;62414;53.436;8.828;2023-06-04T12:07:43;3.92;;;1.33;;
74059;SDS011;62414;53.436;8.828;2023-06-04T12:10:08;4.97;;;1.30;;
74059;SDS011;62414;53.436;8.828;2023-06-04T12:12:36;3.88;;;1.40;;
74059;SDS011;62414;53.436;8.828;2023-06-04T12:15:01;4.85;;;1.50;;
74059;SDS011;62414;53.436;8.828;2023-06-04T12:17:27;4.40;;;1.60;;
74059;SDS011;62414;53.436;8.828;2023-06-04T12:19:52;6.67;;;1.90;;
74059;SDS011;62414;53.436;8.828;2023-06-04T12:22:18;5.00;;;1.77;;
74059;SDS011;62414;53.436;8.828;2023-06-04T12:24:47;4.28;;;1.63;;
74059;SDS011;62414;53.436;8.828;2023-06-04T12:27:13;4.80;;;1.80;;
74059;SDS011;62414;53.436;8.828;2023-06-04T12:29:40;4.13;;;1.70;;
74059;SDS011;62414;53.436;8.828;2023-06-04T12:32:06;5.25;;;1.70;;
74059;SDS011;62414;53.436;8.828;2023-06-04T12:34:32;7.23;;;1.90;;
74059;SDS011;62414;53.436;8.828;2023-06-04T12:36:58;4.85;;;1.83;;
74059;SDS011;62414;53.436;8.828;2023-06-04T12:39:23;6.47;;;2.17;;
74059;SDS011;62414;53.436;8.828;2023-06-04T12:41:49;5.40;;;1.80;;
74059;SDS011;62414;53.436;8.828;2023-06-04T12:44:14;6.28;;;1.90;;
74059;SDS011;62414;53.436;8.828;2023-06-04T12:46:41;5.40;;;1.70;;
74059;SDS011;62414;53.436;8.828;2023-06-04T12:49:06;5.75;;;1.60;;
74059;SDS011;62414;53.436;8.828;2023-06-04T12:51:32;5.47;;;1.80;;
74059;SDS011;62414;53.436;8.828;2023-06-04T12:53:57;5.40;;;1.93;;
74059;SDS011;62414;53.436;8.828;2023-06-04T12:56:23;6.32;;;1.80;;
74059;SDS011;62414;53.436;8.828;2023-06-04T12:58:49;4.57;;;1.80;;
74059;SDS011;62414;53.436;8.828;2023-06-04T13:01:14;4.28;;;1.73;;
74059;SDS011;62414;53.436;8.828;2023-06-04T13:03:41;4.20;;;1.50;;
74059;SDS011;62414;53.436;8.828;2023-06-04T13:06:06;4.90;;;1.73;;
74059;SDS011;62414;53.436;8.828;2023-06-04T13:08:32;5.43;;;1.80;;
74059;SDS011;62414;53.436;8.828;2023-06-04T13:10:58;4.70;;;1.50;;
74059;SDS011;62414;53.436;8.828;2023-06-04T13:13:23;4.00;;;1.80;;
74059;SDS011;62414;53.436;8.828;2023-06-04T13:15:49;5.68;;;1.60;;
74059;SDS011;62414;53.436;8.828;2023-06-04T13:18:14;4.37;;;1.67;;
74059;SDS011;62414;53.436;8.828;2023-06-04T13:20:41;5.57;;;1.63;;
74059;SDS011;62414;53.436;8.828;2023-06-04T13:23:07;4.93;;;1.80;;
74059;SDS011;62414;53.436;8.828;2023-06-04T13:25:33;4.55;;;1.70;;
74059;SDS011;62414;53.436;8.828;2023-06-04T13:27:58;4.73;;;1.60;;
74059;SDS011;62414;53.436;8.828;2023-06-04T13:30:24;4.50;;;1.55;;
74059;SDS011;62414;53.436;8.828;2023-06-04T13:32:49;6.13;;;1.50;;
74059;SDS011;62414;53.436;8.828;2023-06-04T13:35:15;6.30;;;1.60;;
74059;SDS011;62414;53.436;8.828;2023-06-04T13:37:42;4.18;;;1.48;;
74059;SDS011;62414;53.436;8.828;2023-06-04T13:40:08;3.30;;;1.33;;
74059;SDS011;62414;53.436;8.828;2023-06-04T13:42:34;4.53;;;1.50;;
74059;SDS011;62414;53.436;8.828;2023-06-04T13:44:59;4.53;;;1.60;;
74059;SDS011;62414;53.436;8.828;2023-06-04T13:47:25;4.17;;;1.50;;
74059;SDS011;62414;53.436;8.828;2023-06-04T13:49:50;4.20;;;1.40;;
74059;SDS011;62414;53.436;8.828;2023-06-04T13:52:16;4.20;;;1.63;;
74059;SDS011;62414;53.436;8.828;2023-06-04T13:54:43;5.32;;;1.52;;
74059;SDS011;62414;53.436;8.828;2023-06-04T13:57:08;5.37;;;1.60;;
74059;SDS011;62414;53.436;8.828;2023-06-04T13:59:34;5.22;;;1.60;;
74059;SDS011;62414;53.436;8.828;2023-06-04T14:01:59;5.70;;;1.63;;
74059;SDS011;62414;53.436;8.828;2023-06-04T14:04:25;3.87;;;1.50;;
74059;SDS011;62414;53.436;8.828;2023-06-04T14:06:50;4.32;;;1.52;;
74059;SDS011;62414;53.436;8.828;2023-06-04T14:09:15;5.00;;;1.90;;
74059;SDS011;62414;53.436;8.828;2023-06-04T14:11:42;5.27;;;1.70;;
74059;SDS011;62414;53.436;8.828;2023-06-04T14:14:08;3.50;;;1.40;;
74059;SDS011;62414;53.436;8.828;2023-06-04T14:16:33;3.90;;;1.60;;
74059;SDS011;62414;53.436;8.828;2023-06-04T14:18:59;3.40;;;1.47;;
74059;SDS011;62414;53.436;8.828;2023-06-04T14:21:24;3.97;;;1.50;;
74059;SDS011;62414;53.436;8.828;2023-06-04T14:23:51;3.88;;;1.80;;
74059;SDS011;62414;53.436;8.828;2023-06-04T14:26:17;4.47;;;1.70;;
74059;SDS011;62414;53.436;8.828;2023-06-04T14:28:44;3.92;;;1.60;;
74059;SDS011;62414;53.436;8.828;2023-06-04T14:31:09;4.28;;;1.70;;
74059;SDS011;62414;53.436;8.828;2023-06-04T14:33:35;4.60;;;1.70;;
74059;SDS011;62414;53.436;8.828;2023-06-04T14:36:00;4.22;;;1.73;;
74059;SDS011;62414;53.436;8.828;2023-06-04T14:38:26;3.83;;;1.60;;
74059;SDS011;62414;53.436;8.828;2023-06-04T14:40:51;5.93;;;1.60;;